Time;durP1;ratioP1;P1;durP2;ratioP2;P2;SDS_P1;SDS_P2;PMS_P1;PMS_P2;Temp;Humidity;BMP_temperature;BMP_pressure;BME280_temperature;BME280_humidity;BME280_pressure;Samples;Min_cycle;Max_cycle;Signal;HPM_P1;HPM_P2
2022/12/30 00:00:25;;;;;;;4.30;1.50;;;;;;;8.18;100.00;98385.69;4204771;28;20238;-49
2022/12/30 00:02:27;;;;;;;3.22;1.70;;;;;;;8.12;100.00;98383.91;4201380;28;20218;-48
2022/12/30 00:04:29;;;;;;;8.02;1.80;;;;;;;8.10;100.00;98392.31;4186972;28;20211;-50
2022/12/30 00:06:31;;;;;;;7.00;2.22;;;;;;;8.08;100.00;98396.38;4218671;27;20241;-49
2022/12/30 00:08:47;;;;;;;1.95;1.83;;;;;;;8.08;100.00;98388.19;4203883;28;20207;-49
2022/12/30 00:10:49;;;;;;;4.15;1.42;;;;;;;8.01;100.00;98385.56;4203856;28;20205;-50
2022/12/30 00:34:29;;;;;;;5.18;2.03;;;;;;;7.60;100.00;98380.22;4200738;28;20241;-48
2022/12/30 00:36:31;;;;;;;1.83;1.65;;;;;;;7.62;100.00;98377.28;4200277;28;20288;-50
2022/12/30 00:38:33;;;;;;;5.32;2.35;;;;;;;7.58;100.00;98381.50;4205180;28;20240;-50
2022/12/30 00:40:35;;;;;;;3.33;2.08;;;;;;;7.56;100.00;98389.09;4205331;28;20202;-48
2022/12/30 00:44:56;;;;;;;9.63;1.80;;;;;;;7.50;100.00;98385.41;4216739;27;20253;-49
2022/12/30 00:46:58;;;;;;;5.35;2.80;;;;;;;7.57;100.00;98390.75;4217142;27;20229;-49
2022/12/30 00:56:12;;;;;;;3.00;1.70;;;;;;;7.48;100.00;98390.25;4217867;28;20302;-48
2022/12/30 00:58:14;;;;;;;4.32;2.05;;;;;;;7.44;100.00;98396.41;4219516;27;20578;-48
2022/12/30 01:00:16;;;;;;;4.05;1.75;;;;;;;7.37;100.00;98395.66;4206992;28;20264;-48
2022/12/30 01:02:18;;;;;;;7.75;2.03;;;;;;;7.41;100.00;98396.88;4199458;28;20308;-49
2022/12/30 01:04:20;;;;;;;4.22;1.63;;;;;;;7.30;100.00;98405.81;4199547;28;20720;-49
2022/12/30 01:06:26;;;;;;;8.80;1.42;;;;;;;7.34;100.00;98401.56;4183697;28;20238;-48
2022/12/30 01:08:28;;;;;;;9.23;1.25;;;;;;;7.28;100.00;98418.84;4197990;28;20237;-49
2022/12/30 01:10:30;;;;;;;4.28;1.65;;;;;;;7.17;100.00;98412.28;4198030;28;20273;-49
2022/12/30 01:12:32;;;;;;;4.30;1.95;;;;;;;7.13;100.00;98418.41;4202069;28;20234;-49
2022/12/30 01:14:42;;;;;;;8.10;1.33;;;;;;;7.09;100.00;98414.50;4196646;28;20210;-49
2022/12/30 01:16:44;;;;;;;2.50;1.77;;;;;;;7.08;100.00;98419.09;4218580;27;20272;-48
2022/12/30 01:18:46;;;;;;;4.35;1.85;;;;;;;7.23;100.00;98429.59;4187462;28;20239;-50
2022/12/30 01:20:47;;;;;;;4.07;1.98;;;;;;;7.17;100.00;98427.78;4199630;28;20571;-49
2022/12/30 01:22:49;;;;;;;4.38;1.25;;;;;;;7.06;100.00;98431.28;4212534;28;20302;-49
2022/12/30 01:24:51;;;;;;;3.85;1.35;;;;;;;6.99;100.00;98420.50;4203512;28;20666;-48
2022/12/30 01:26:52;;;;;;;1.88;1.20;;;;;;;6.99;100.00;98417.78;4201522;28;20298;-50
2022/12/30 01:28:54;;;;;;;1.90;1.20;;;;;;;6.96;100.00;98409.25;4198760;28;20258;-49
2022/12/30 01:30:57;;;;;;;3.10;1.38;;;;;;;7.03;100.00;98415.44;4187561;28;20735;-49
2022/12/30 01:32:59;;;;;;;1.30;1.05;;;;;;;6.96;100.00;98414.69;4216772;28;20225;-49
2022/12/30 01:35:01;;;;;;;9.90;1.45;;;;;;;6.96;100.00;98418.22;4198257;28;20615;-50
2022/12/30 01:37:03;;;;;;;5.22;2.28;;;;;;;6.94;100.00;98427.66;4205723;28;20267;-48
2022/12/30 01:39:05;;;;;;;4.38;2.00;;;;;;;6.97;100.00;98421.78;4201578;28;20837;-49
2022/12/30 01:41:06;;;;;;;5.97;1.42;;;;;;;6.91;100.00;98430.84;4201371;28;20381;-49
2022/12/30 01:43:15;;;;;;;4.22;1.77;;;;;;;6.86;100.00;98431.56;4198237;28;21111;-48
2022/12/30 01:45:24;;;;;;;2.15;1.33;;;;;;;6.92;100.00;98435.22;4185769;28;20263;-49
2022/12/30 01:47:50;;;;;;;3.30;1.75;;;;;;;6.91;100.00;98428.13;4204008;28;20217;-49
2022/12/30 01:49:56;;;;;;;3.15;1.38;;;;;;;6.93;100.00;98431.44;4204124;28;20222;-48
2022/12/30 01:51:58;;;;;;;3.25;1.98;;;;;;;6.98;100.00;98439.75;4198674;28;20219;-49
2022/12/30 01:54:01;;;;;;;1.48;1.33;;;;;;;7.00;100.00;98443.06;4199272;28;20243;-48
2022/12/30 01:56:07;;;;;;;3.35;1.23;;;;;;;7.03;100.00;98443.44;4199473;28;22331;-49
2022/12/30 01:58:21;;;;;;;2.88;1.30;;;;;;;7.04;100.00;98450.56;4213595;27;20339;-49
2022/12/30 02:00:23;;;;;;;3.47;1.80;;;;;;;7.05;100.00;98448.66;4198935;28;20226;-49
2022/12/30 02:02:26;;;;;;;2.15;1.95;;;;;;;7.11;100.00;98450.47;4215562;28;20264;-49
2022/12/30 02:04:28;;;;;;;3.75;1.58;;;;;;;7.13;100.00;98453.78;4216648;27;20211;-49
2022/12/30 02:06:51;;;;;;;5.65;1.60;;;;;;;7.15;100.00;98452.50;4187073;28;20250;-49
2022/12/30 02:08:53;;;;;;;2.28;1.40;;;;;;;7.08;100.00;98448.22;4206136;28;20222;-49
2022/12/30 02:10:55;;;;;;;2.78;1.65;;;;;;;7.11;100.00;98461.34;4220096;28;20245;-48
2022/12/30 02:13:00;;;;;;;3.13;1.40;;;;;;;7.09;100.00;98464.28;4217435;28;20636;-49
2022/12/30 02:15:03;;;;;;;2.80;2.47;;;;;;;7.15;100.00;98462.56;4190375;28;20286;-49
2022/12/30 02:17:13;;;;;;;9.68;1.38;;;;;;;7.24;100.00;98466.63;4204980;28;20226;-49
2022/12/30 02:19:21;;;;;;;7.63;1.05;;;;;;;7.16;100.00;98464.22;4200220;28;20255;-49
2022/12/30 02:21:46;;;;;;;3.20;1.25;;;;;;;7.12;100.00;98466.56;4204228;28;20215;-49
2022/12/30 02:24:00;;;;;;;1.98;1.67;;;;;;;7.19;100.00;98469.19;4200465;28;20235;-49
2022/12/30 02:26:39;;;;;;;5.53;1.83;;;;;;;7.08;100.00;98473.53;4203075;28;20195;-49
2022/12/30 02:29:02;;;;;;;3.92;2.17;;;;;;;7.23;100.00;98463.06;4214735;28;20212;-49
2022/12/30 02:31:27;;;;;;;3.92;1.30;;;;;;;7.17;100.00;98466.69;4203786;28;20723;-49
2022/12/30 02:33:56;;;;;;;2.67;1.63;;;;;;;7.00;100.00;98456.69;4215837;28;20949;-49
2022/12/30 02:36:31;;;;;;;3.53;1.88;;;;;;;7.05;100.00;98454.09;4201856;28;20207;-49
2022/12/30 02:38:43;;;;;;;4.05;1.48;;;;;;;6.93;100.00;98453.22;4215513;28;20733;-49
2022/12/30 02:46:01;;;;;;;2.67;0.98;;;;;;;6.82;100.00;98448.56;4214930;28;20226;-49
2022/12/30 02:48:11;;;;;;;1.17;1.10;;;;;;;6.74;100.00;98449.69;4214968;28;20206;-49
2022/12/30 02:52:40;;;;;;;3.25;1.90;;;;;;;6.75;100.00;98450.53;4215892;28;20213;-50
2022/12/30 02:54:43;;;;;;;1.80;1.17;;;;;;;6.72;100.00;98448.25;4186452;28;20207;-50
2022/12/30 02:56:52;;;;;;;3.60;1.70;;;;;;;6.71;100.00;98438.44;4200461;28;20223;-49
2022/12/30 03:04:16;;;;;;;6.03;2.10;;;;;;;6.72;100.00;98434.66;4217960;27;20210;-49
2022/12/30 03:06:49;;;;;;;3.28;2.63;;;;;;;6.62;100.00;98434.38;4205874;28;20195;-48
2022/12/30 03:09:12;;;;;;;3.05;2.08;;;;;;;6.55;100.00;98439.06;4204750;28;20256;-49
2022/12/30 03:11:18;;;;;;;2.45;2.00;;;;;;;6.56;100.00;98446.16;4220665;27;20198;-48
2022/12/30 03:13:25;;;;;;;2.50;1.98;;;;;;;6.50;100.00;98452.47;4199251;28;20203;-48
2022/12/30 03:15:39;;;;;;;4.38;1.58;;;;;;;6.52;100.00;98444.94;4218696;27;20244;-48
2022/12/30 03:17:42;;;;;;;9.00;3.08;;;;;;;6.57;100.00;98445.09;4222304;27;20209;-49
2022/12/30 03:19:47;;;;;;;5.90;2.78;;;;;;;6.59;100.00;98437.53;4204104;28;20229;-48
2022/12/30 03:21:51;;;;;;;5.47;2.50;;;;;;;6.62;100.00;98439.81;4219440;28;20554;-49
2022/12/30 03:28:38;;;;;;;5.72;1.90;;;;;;;6.70;100.00;98459.34;4220394;27;20202;-50
2022/12/30 03:30:54;;;;;;;1.80;1.70;;;;;;;6.74;100.00;98459.72;4204725;28;20326;-49
2022/12/30 03:32:56;;;;;;;5.82;2.30;;;;;;;6.75;100.00;98453.25;4207014;28;20234;-49
2022/12/30 03:34:58;;;;;;;2.53;2.25;;;;;;;6.73;100.00;98445.31;4210672;28;20203;-49
2022/12/30 03:37:10;;;;;;;8.40;1.90;;;;;;;6.79;100.00;98446.28;4205188;28;20277;-49
2022/12/30 03:39:38;;;;;;;3.28;2.65;;;;;;;6.71;100.00;98450.16;4189177;28;20254;-50
2022/12/30 03:41:42;;;;;;;7.38;2.83;;;;;;;6.75;100.00;98451.34;4197495;28;20297;-48
2022/12/30 03:43:44;;;;;;;2.45;2.25;;;;;;;6.71;100.00;98446.59;4196634;28;20249;-48
2022/12/30 03:45:46;;;;;;;2.45;1.63;;;;;;;6.72;100.00;98446.38;4201289;28;20249;-49
2022/12/30 03:47:48;;;;;;;10.63;1.92;;;;;;;6.69;100.00;98441.38;4204746;28;20207;-49
2022/12/30 03:49:49;;;;;;;6.05;2.65;;;;;;;6.72;100.00;98440.09;4217911;27;20225;-48
2022/12/30 03:51:51;;;;;;;3.67;3.38;;;;;;;6.74;100.00;98437.97;4215819;27;21126;-49
2022/12/30 03:53:53;;;;;;;6.13;3.20;;;;;;;6.82;100.00;98441.22;4216646;27;20273;-48
2022/12/30 03:55:55;;;;;;;5.68;2.60;;;;;;;6.77;100.00;98426.66;4218310;27;20260;-50
2022/12/30 03:57:56;;;;;;;2.70;1.92;;;;;;;6.80;100.00;98437.91;4203436;28;20202;-49
2022/12/30 03:59:59;;;;;;;5.53;2.28;;;;;;;6.79;100.00;98428.09;4197131;28;20227;-50
2022/12/30 04:02:01;;;;;;;9.57;2.60;;;;;;;6.72;100.00;98431.94;4202203;28;20210;-49
2022/12/30 04:04:03;;;;;;;5.15;1.98;;;;;;;6.83;100.00;98431.19;4201514;28;20207;-49
2022/12/30 04:06:05;;;;;;;4.13;2.53;;;;;;;6.77;100.00;98426.66;4217487;27;20253;-49
2022/12/30 04:08:06;;;;;;;3.03;1.73;;;;;;;6.76;100.00;98425.00;4204375;28;20203;-48
2022/12/30 04:10:08;;;;;;;10.63;2.38;;;;;;;6.77;100.00;98432.09;4216116;27;20222;-49
2022/12/30 04:12:10;;;;;;;6.85;2.55;;;;;;;6.73;100.00;98426.28;4215413;27;20721;-48
2022/12/30 04:14:12;;;;;;;2.45;2.17;;;;;;;6.76;100.00;98419.56;4216633;27;20203;-49
2022/12/30 04:16:13;;;;;;;2.17;1.48;;;;;;;6.72;100.00;98429.22;4189120;28;21019;-49
2022/12/30 04:18:15;;;;;;;3.30;3.00;;;;;;;6.73;100.00;98430.88;4188849;28;20222;-49
2022/12/30 04:20:17;;;;;;;3.40;1.73;;;;;;;6.76;100.00;98441.31;4217994;27;20266;-49
2022/12/30 04:22:19;;;;;;;3.45;1.80;;;;;;;6.73;100.00;98456.19;4203035;28;20203;-50
2022/12/30 04:24:21;;;;;;;2.17;1.77;;;;;;;6.79;100.00;98454.44;4206059;28;20246;-50
2022/12/30 04:26:23;;;;;;;6.13;1.77;;;;;;;6.80;100.00;98459.66;4218192;28;20198;-49
2022/12/30 04:28:24;;;;;;;3.70;1.90;;;;;;;6.76;100.00;98452.19;4200944;28;20717;-50
2022/12/30 04:30:26;;;;;;;4.78;1.55;;;;;;;6.74;100.00;98455.13;4200139;28;20694;-49
2022/12/30 04:32:28;;;;;;;5.90;1.65;;;;;;;6.68;100.00;98450.59;4216511;27;20207;-49
2022/12/30 04:34:30;;;;;;;3.40;2.10;;;;;;;6.59;100.00;98451.13;4199901;28;20237;-49
2022/12/30 04:36:31;;;;;;;3.28;2.03;;;;;;;6.65;100.00;98444.78;4198478;28;20333;-49
2022/12/30 04:38:33;;;;;;;19.02;2.47;;;;;;;6.55;100.00;98452.66;4217534;28;20321;-50
2022/12/30 04:40:35;;;;;;;2.75;2.17;;;;;;;6.62;100.00;98461.56;4217671;28;20237;-50
2022/12/30 04:42:36;;;;;;;5.35;2.22;;;;;;;6.62;100.00;98464.28;4199849;28;20279;-49
2022/12/30 04:44:38;;;;;;;5.95;2.00;;;;;;;6.63;100.00;98468.66;4220375;28;20233;-49
2022/12/30 04:46:40;;;;;;;3.78;1.77;;;;;;;6.63;100.00;98465.94;4202882;28;20657;-49
2022/12/30 04:48:42;;;;;;;4.32;2.10;;;;;;;6.65;100.00;98472.81;4202519;28;20211;-49
2022/12/30 04:50:44;;;;;;;4.85;1.92;;;;;;;6.69;100.00;98467.75;4191073;28;20251;-49
2022/12/30 04:52:46;;;;;;;1.73;1.63;;;;;;;6.77;100.00;98470.97;4201491;28;22155;-49
2022/12/30 04:54:48;;;;;;;5.65;1.73;;;;;;;6.65;100.00;98475.53;4197217;28;20215;-49
2022/12/30 04:56:50;;;;;;;18.17;1.95;;;;;;;6.67;100.00;98478.84;4187185;28;20348;-48
2022/12/30 04:58:51;;;;;;;3.83;2.55;;;;;;;6.62;100.00;98469.72;4188217;28;20227;-49
2022/12/30 05:00:53;;;;;;;2.90;1.70;;;;;;;6.60;100.00;98469.09;4217533;28;20240;-50
2022/12/30 05:02:55;;;;;;;2.92;1.80;;;;;;;6.66;100.00;98465.47;4199921;28;20211;-48
2022/12/30 05:04:57;;;;;;;2.58;2.00;;;;;;;6.69;100.00;98474.00;4196461;28;20214;-49
2022/12/30 05:06:59;;;;;;;5.18;1.95;;;;;;;6.72;100.00;98470.00;4199473;28;20294;-48
2022/12/30 05:09:01;;;;;;;1.85;1.60;;;;;;;6.64;100.00;98470.31;4201699;28;20245;-48
2022/12/30 05:11:03;;;;;;;2.00;1.73;;;;;;;6.67;100.00;98475.28;4195934;28;20298;-49
2022/12/30 05:13:05;;;;;;;2.67;1.60;;;;;;;6.63;100.00;98474.91;4201887;28;20758;-49
2022/12/30 05:15:07;;;;;;;4.75;1.73;;;;;;;6.68;100.00;98469.63;4205121;28;20261;-49
2022/12/30 05:17:09;;;;;;;7.03;1.60;;;;;;;6.63;100.00;98474.09;4219016;27;20221;-49
2022/12/30 05:19:11;;;;;;;2.88;1.98;;;;;;;6.58;100.00;98477.50;4214564;27;20312;-49
2022/12/30 05:21:12;;;;;;;2.75;1.40;;;;;;;6.60;100.00;98469.09;4218899;27;20245;-49
2022/12/30 05:27:55;;;;;;;3.17;2.97;;;;;;;6.65;100.00;98466.53;4201355;28;20252;-49
2022/12/30 05:29:56;;;;;;;2.42;1.77;;;;;;;6.74;100.00;98476.03;4188621;28;20269;-49
2022/12/30 05:31:58;;;;;;;1.50;1.40;;;;;;;6.69;100.00;98470.47;4218708;27;20230;-49
2022/12/30 05:34:00;;;;;;;3.08;2.65;;;;;;;6.66;100.00;98468.19;4219119;27;20681;-49
2022/12/30 05:36:10;;;;;;;4.80;1.38;;;;;;;6.60;100.00;98474.53;4199407;28;20206;-49
2022/12/30 05:38:12;;;;;;;1.75;1.08;;;;;;;6.61;100.00;98470.75;4201726;28;20271;-49
2022/12/30 05:40:14;;;;;;;2.40;1.60;;;;;;;6.65;100.00;98482.84;4215479;28;20223;-48
2022/12/30 05:42:16;;;;;;;1.80;1.20;;;;;;;6.60;100.00;98482.69;4202628;28;20215;-49
2022/12/30 05:44:17;;;;;;;5.03;1.42;;;;;;;6.59;100.00;98486.44;4216588;27;20681;-49
2022/12/30 05:46:21;;;;;;;0.80;0.80;;;;;;;6.59;100.00;98489.16;4216843;27;20210;-49
2022/12/30 05:48:24;;;;;;;4.35;1.40;;;;;;;6.63;100.00;98495.84;4214941;28;20195;-49
2022/12/30 05:50:25;;;;;;;2.88;1.27;;;;;;;6.62;100.00;98494.19;4217596;27;21022;-49
2022/12/30 05:52:29;;;;;;;1.15;0.95;;;;;;;6.74;100.00;98481.47;4214254;27;21880;-49
2022/12/30 05:54:30;;;;;;;3.83;1.63;;;;;;;6.62;100.00;98477.88;4197804;28;20325;-50
2022/12/30 05:56:32;;;;;;;3.00;1.73;;;;;;;6.66;100.00;98489.94;4202809;28;20611;-49
2022/12/30 05:58:34;;;;;;;4.32;2.00;;;;;;;6.64;100.00;98482.03;4218674;27;20233;-49
2022/12/30 06:00:36;;;;;;;6.03;1.50;;;;;;;6.64;100.00;98475.75;4185642;28;20761;-49
2022/12/30 06:02:37;;;;;;;3.17;1.38;;;;;;;6.63;100.00;98471.38;4200459;28;20238;-49
2022/12/30 06:04:41;;;;;;;1.83;1.60;;;;;;;6.64;100.00;98476.59;4199201;28;20226;-49
2022/12/30 06:06:44;;;;;;;1.40;1.20;;;;;;;6.70;100.00;98474.84;4202901;28;20623;-49
2022/12/30 06:08:45;;;;;;;3.20;1.58;;;;;;;6.64;100.00;98476.59;4200513;28;20234;-48
2022/12/30 06:10:47;;;;;;;2.47;1.45;;;;;;;6.69;100.00;98484.06;4201836;28;20214;-49
2022/12/30 06:12:49;;;;;;;1.20;1.10;;;;;;;6.68;100.00;98482.41;4217799;28;20280;-49
2022/12/30 06:14:51;;;;;;;6.28;1.58;;;;;;;6.61;100.00;98481.63;4223480;28;20225;-49
2022/12/30 06:16:52;;;;;;;4.28;1.10;;;;;;;6.67;100.00;98480.72;4207923;28;20221;-49
2022/12/30 06:18:54;;;;;;;3.05;1.40;;;;;;;6.70;100.00;98480.28;4186340;28;20288;-49
2022/12/30 06:20:59;;;;;;;2.25;1.13;;;;;;;6.73;100.00;98479.81;4189665;28;20315;-49
2022/12/30 06:23:01;;;;;;;1.55;1.02;;;;;;;6.70;100.00;98469.41;4183011;28;20635;-49
2022/12/30 06:25:03;;;;;;;1.90;1.23;;;;;;;6.73;100.00;98474.38;4205119;28;20297;-49
2022/12/30 06:27:04;;;;;;;1.05;1.05;;;;;;;6.75;100.00;98472.28;4214701;28;20667;-49
2022/12/30 06:29:06;;;;;;;6.05;1.40;;;;;;;6.79;100.00;98473.47;4184510;28;20234;-49
2022/12/30 06:31:08;;;;;;;1.38;1.08;;;;;;;6.79;100.00;98473.47;4218036;28;20266;-48
2022/12/30 06:33:10;;;;;;;2.35;1.30;;;;;;;6.81;100.00;98476.78;4187150;28;20203;-49
2022/12/30 06:35:12;;;;;;;2.10;1.30;;;;;;;6.76;100.00;98476.66;4219568;27;20206;-49
2022/12/30 06:37:14;;;;;;;2.42;1.45;;;;;;;6.77;100.00;98481.03;4202158;28;20261;-49
2022/12/30 06:39:15;;;;;;;2.15;1.40;;;;;;;6.83;100.00;98474.69;4203238;28;20234;-49
2022/12/30 06:41:17;;;;;;;2.60;1.10;;;;;;;6.80;100.00;98475.13;4201915;28;20210;-50
2022/12/30 06:43:19;;;;;;;3.95;1.45;;;;;;;6.82;100.00;98468.41;4221326;27;20289;-49
2022/12/30 06:45:21;;;;;;;3.20;1.73;;;;;;;6.87;100.00;98459.56;4202158;28;20209;-49
2022/12/30 06:47:23;;;;;;;1.83;1.73;;;;;;;6.90;100.00;98456.41;4205444;28;20268;-49
2022/12/30 06:49:24;;;;;;;2.72;1.70;;;;;;;6.87;100.00;98465.00;4218503;27;20229;-49
2022/12/30 06:51:26;;;;;;;2.38;1.30;;;;;;;6.83;100.00;98452.94;4202261;28;20752;-50
2022/12/30 06:53:28;;;;;;;2.75;1.67;;;;;;;6.84;100.00;98460.03;4186649;28;20235;-50
2022/12/30 06:55:30;;;;;;;4.05;1.45;;;;;;;6.88;100.00;98450.38;4201424;28;20345;-49
2022/12/30 06:57:35;;;;;;;3.55;1.20;;;;;;;6.91;100.00;98449.91;4206316;28;20279;-50
2022/12/30 06:59:37;;;;;;;3.67;0.90;;;;;;;6.86;100.00;98447.03;4201584;28;20234;-50
2022/12/30 07:01:39;;;;;;;2.58;1.40;;;;;;;6.82;100.00;98443.13;4206052;28;20290;-50
2022/12/30 07:03:41;;;;;;;2.80;1.00;;;;;;;6.83;100.00;98442.88;4205073;28;20206;-50
2022/12/30 07:05:43;;;;;;;2.92;1.10;;;;;;;6.88;100.00;98440.31;4217410;27;20210;-49
2022/12/30 07:07:44;;;;;;;1.33;1.20;;;;;;;6.88;100.00;98439.50;4191841;28;20269;-49
2022/12/30 07:09:46;;;;;;;1.50;1.40;;;;;;;6.92;100.00;98433.34;4200205;28;20222;-49
2022/12/30 07:11:48;;;;;;;5.40;1.20;;;;;;;6.78;100.00;98434.59;4216919;28;20239;-49
2022/12/30 07:13:50;;;;;;;4.68;1.10;;;;;;;6.91;100.00;98439.03;4188970;28;20265;-49
2022/12/30 07:15:52;;;;;;;2.25;1.55;;;;;;;6.89;100.00;98452.03;4186138;28;20199;-49
2022/12/30 07:17:54;;;;;;;4.82;1.30;;;;;;;6.92;100.00;98441.53;4217316;27;20225;-49
2022/12/30 07:19:55;;;;;;;2.20;1.33;;;;;;;6.96;100.00;98444.63;4221469;27;20618;-50
2022/12/30 07:21:58;;;;;;;1.95;1.17;;;;;;;6.98;100.00;98440.59;4196231;28;20687;-50
2022/12/30 07:23:59;;;;;;;5.75;1.48;;;;;;;6.98;100.00;98450.66;4202651;28;20293;-49
2022/12/30 07:26:01;;;;;;;7.95;1.10;;;;;;;6.97;100.00;98446.25;4189466;28;20239;-48
2022/12/30 07:28:04;;;;;;;1.75;0.98;;;;;;;6.97;100.00;98454.44;4191887;28;20322;-49
2022/12/30 07:30:06;;;;;;;3.17;2.35;;;;;;;6.99;100.00;98455.00;4201283;28;20331;-49
2022/12/30 07:32:09;;;;;;;5.05;2.25;;;;;;;6.97;100.00;98460.69;4201641;28;20215;-49
2022/12/30 07:34:11;;;;;;;12.05;6.55;;;;;;;7.07;100.00;98451.97;4198344;28;20698;-49
2022/12/30 07:36:13;;;;;;;12.90;7.63;;;;;;;7.01;100.00;98455.59;4184536;28;20238;-49
2022/12/30 07:38:15;;;;;;;6.57;4.70;;;;;;;7.00;100.00;98464.84;4179901;28;20274;-49
2022/12/30 07:40:17;;;;;;;7.20;2.28;;;;;;;7.04;100.00;98464.19;4218903;27;20258;-49
2022/12/30 07:42:19;;;;;;;2.20;1.75;;;;;;;7.06;100.00;98461.19;4190370;28;20265;-49
2022/12/30 07:44:20;;;;;;;3.63;1.55;;;;;;;7.10;100.00;98459.69;4201677;28;20230;-49
2022/12/30 07:46:22;;;;;;;3.33;1.83;;;;;;;7.16;100.00;98464.22;4199729;28;20206;-48
2022/12/30 07:48:24;;;;;;;5.88;2.70;;;;;;;7.16;100.00;98446.00;4201339;28;20218;-49
2022/12/30 07:50:26;;;;;;;3.58;2.65;;;;;;;7.17;100.00;98444.94;4217004;27;20230;-49
2022/12/30 07:52:28;;;;;;;5.60;1.92;;;;;;;7.18;100.00;98445.78;4218170;27;20337;-49
2022/12/30 07:54:30;;;;;;;2.92;1.77;;;;;;;7.23;100.00;98448.63;4203926;28;20298;-49
2022/12/30 07:56:31;;;;;;;3.65;1.73;;;;;;;7.22;100.00;98434.19;4200994;28;20253;-49
2022/12/30 07:58:33;;;;;;;1.50;1.23;;;;;;;7.32;100.00;98436.34;4201166;28;20272;-49
2022/12/30 08:00:35;;;;;;;1.42;0.80;;;;;;;7.30;100.00;98433.03;4215198;27;20241;-48
2022/12/30 08:02:38;;;;;;;2.00;1.20;;;;;;;7.30;100.00;98433.03;4220603;27;20268;-49
2022/12/30 08:04:41;;;;;;;4.50;1.38;;;;;;;7.27;100.00;98425.31;4189945;28;20615;-48
2022/12/30 08:06:53;;;;;;;5.03;1.27;;;;;;;7.28;100.00;98424.28;4203371;28;20206;-49
2022/12/30 08:08:55;;;;;;;1.23;0.93;;;;;;;7.33;100.00;98421.69;4214404;27;20214;-49
2022/12/30 08:10:58;;;;;;;1.65;1.17;;;;;;;7.29;100.00;98415.88;4220521;27;20292;-49
2022/12/30 08:12:59;;;;;;;1.65;1.20;;;;;;;7.33;100.00;98411.63;4202441;28;20670;-49
2022/12/30 08:15:01;;;;;;;1.65;1.35;;;;;;;7.33;100.00;98402.63;4195631;28;20253;-55
2022/12/30 08:17:03;;;;;;;5.38;1.50;;;;;;;7.39;100.00;98398.97;4201159;28;20201;-48
2022/12/30 08:19:05;;;;;;;3.72;1.45;;;;;;;7.38;100.00;98402.78;4195958;28;20273;-49
2022/12/30 08:21:10;;;;;;;1.20;1.10;;;;;;;7.39;100.00;98402.53;4185442;28;20341;-49
2022/12/30 08:23:11;;;;;;;3.45;1.83;;;;;;;7.38;100.00;98400.03;4201858;28;20211;-49
2022/12/30 08:25:13;;;;;;;1.60;1.50;;;;;;;7.43;100.00;98390.09;4183430;28;20259;-48
2022/12/30 08:27:15;;;;;;;2.00;1.80;;;;;;;7.44;100.00;98390.97;4179066;28;20638;-48
2022/12/30 08:29:16;;;;;;;1.73;1.52;;;;;;;7.40;100.00;98378.88;4195309;28;20230;-50
2022/12/30 08:31:24;;;;;;;4.57;1.85;;;;;;;7.40;100.00;98384.31;4214862;27;20195;-49
2022/12/30 08:33:26;;;;;;;2.03;1.25;;;;;;;7.41;100.00;98375.91;4199673;28;20234;-48
2022/12/30 08:35:28;;;;;;;2.30;1.38;;;;;;;7.55;100.00;98376.53;4213448;27;20221;-50
2022/12/30 08:37:30;;;;;;;4.78;1.70;;;;;;;7.55;100.00;98371.09;4197547;28;20779;-50
2022/12/30 08:39:32;;;;;;;5.97;0.82;;;;;;;7.67;100.00;98364.59;4196067;28;20726;-48
2022/12/30 08:41:35;;;;;;;1.25;1.13;;;;;;;7.72;100.00;98355.72;4196641;28;20246;-48
2022/12/30 08:43:36;;;;;;;3.25;1.35;;;;;;;7.76;100.00;98356.91;4184129;28;20195;-49
2022/12/30 08:45:38;;;;;;;1.27;1.00;;;;;;;7.73;100.00;98349.19;4214277;27;20561;-49
2022/12/30 08:47:40;;;;;;;2.22;1.35;;;;;;;7.70;100.00;98361.38;4201494;28;20218;-49
2022/12/30 08:49:42;;;;;;;3.17;1.50;;;;;;;7.53;100.00;98346.81;4212679;28;20264;-49
2022/12/30 08:51:44;;;;;;;2.33;1.35;;;;;;;7.60;100.00;98341.25;4212153;27;20206;-49
2022/12/30 08:53:46;;;;;;;3.63;1.27;;;;;;;7.50;100.00;98330.13;4195862;28;21876;-49
2022/12/30 08:55:48;;;;;;;1.80;1.10;;;;;;;7.57;100.00;98348.00;4202037;28;20289;-49
2022/12/30 08:57:50;;;;;;;7.75;1.55;;;;;;;7.56;100.00;98335.44;4196216;28;20262;-49
2022/12/30 08:59:52;;;;;;;1.63;1.00;;;;;;;7.64;100.00;98331.56;4197070;28;20227;-48
2022/12/30 09:01:54;;;;;;;1.42;1.30;;;;;;;7.55;100.00;98328.34;4214149;27;20639;-49
2022/12/30 09:03:56;;;;;;;1.65;1.02;;;;;;;7.63;100.00;98327.19;4198720;28;20225;-49
2022/12/30 09:05:58;;;;;;;0.85;0.85;;;;;;;7.62;100.00;98320.09;4197079;28;20234;-49
2022/12/30 09:08:03;;;;;;;4.38;1.77;;;;;;;7.66;100.00;98315.81;4200540;28;20219;-48
2022/12/30 09:10:10;;;;;;;1.50;1.05;;;;;;;7.70;100.00;98308.84;4216502;28;20229;-49
2022/12/30 09:12:12;;;;;;;1.52;1.10;;;;;;;7.68;100.00;98310.97;4185175;28;20204;-48
2022/12/30 09:14:16;;;;;;;15.23;2.50;;;;;;;7.72;100.00;98301.25;4176527;28;20211;-49
2022/12/30 09:16:21;;;;;;;0.95;0.90;;;;;;;7.66;100.00;98308.47;4213809;27;20255;-49
2022/12/30 09:18:23;;;;;;;2.03;1.40;;;;;;;7.66;100.00;98303.03;4196097;28;20231;-49
2022/12/30 09:20:25;;;;;;;1.20;1.00;;;;;;;7.69;100.00;98301.75;4199500;28;20226;-48
2022/12/30 09:22:28;;;;;;;2.55;1.08;;;;;;;7.75;100.00;98306.25;4213560;27;20195;-48
2022/12/30 09:24:43;;;;;;;2.65;1.27;;;;;;;7.77;100.00;98304.94;4198711;27;20603;-48
2022/12/30 09:26:50;;;;;;;2.70;1.30;;;;;;;7.87;100.00;98296.13;4197515;28;20212;-55
2022/12/30 09:29:01;;;;;;;1.30;1.20;;;;;;;7.94;100.00;98302.28;4182708;28;20234;-49
2022/12/30 09:31:05;;;;;;;3.50;1.10;;;;;;;8.05;100.00;98301.47;4182264;28;20204;-48
2022/12/30 09:33:06;;;;;;;2.35;1.00;;;;;;;8.10;100.00;98305.13;4183757;28;20691;-49
2022/12/30 09:35:08;;;;;;;0.93;0.93;;;;;;;8.14;100.00;98294.56;4182576;28;20236;-49
2022/12/30 09:37:14;;;;;;;1.00;1.00;;;;;;;8.20;100.00;98288.19;4182919;28;20268;-49
2022/12/30 09:39:30;;;;;;;1.27;0.80;;;;;;;8.25;100.00;98285.56;4169692;28;20266;-48
2022/12/30 09:44:12;;;;;;;1.52;1.17;;;;;;;8.27;100.00;98280.69;4181315;28;20222;-49
2022/12/30 09:46:29;;;;;;;5.22;1.95;;;;;;;8.29;99.20;98276.66;4187801;28;20203;-48
2022/12/30 09:48:48;;;;;;;1.25;1.25;;;;;;;8.37;98.78;98267.28;4180982;28;20226;-49
2022/12/30 09:50:58;;;;;;;2.97;1.38;;;;;;;8.47;99.37;98272.94;4199404;28;20251;-49
2022/12/30 09:53:15;;;;;;;1.70;1.10;;;;;;;8.46;99.38;98271.28;4198037;28;20210;-49
2022/12/30 09:55:21;;;;;;;4.78;1.25;;;;;;;8.47;98.70;98272.94;4184643;28;20200;-49
2022/12/30 09:57:30;;;;;;;1.65;1.00;;;;;;;8.59;98.71;98273.72;4180723;28;20666;-49
2022/12/30 09:59:32;;;;;;;3.58;1.45;;;;;;;8.53;98.50;98270.06;4182478;28;20716;-48
2022/12/30 10:01:41;;;;;;;0.98;0.98;;;;;;;8.49;98.59;98268.09;4187403;28;20211;-49
2022/12/30 10:03:43;;;;;;;1.80;0.90;;;;;;;8.37;98.59;98261.84;4184860;28;20231;-49
2022/12/30 10:06:17;;;;;;;0.93;0.93;;;;;;;8.34;98.30;98267.78;4195674;28;20294;-50
2022/12/30 10:08:22;;;;;;;1.08;1.02;;;;;;;8.39;98.48;98254.25;4183090;28;20231;-49
2022/12/30 10:10:27;;;;;;;2.38;1.55;;;;;;;8.31;98.65;98247.28;4182417;28;20258;-49
2022/12/30 10:13:04;;;;;;;0.73;0.73;;;;;;;8.29;98.09;98240.41;4182855;28;20261;-48
2022/12/30 10:15:23;;;;;;;1.08;0.93;;;;;;;8.31;98.47;98235.56;4151944;28;20752;-49
2022/12/30 10:17:40;;;;;;;1.48;0.80;;;;;;;8.32;98.42;98232.59;4183762;28;20316;-50
2022/12/30 10:19:54;;;;;;;1.05;0.70;;;;;;;8.25;97.65;98237.34;4182760;28;20656;-48
2022/12/30 10:22:37;;;;;;;0.82;0.77;;;;;;;8.35;97.93;98234.00;4184107;28;20693;-50
2022/12/30 10:25:09;;;;;;;0.80;0.80;;;;;;;8.30;98.05;98225.72;4135422;28;20240;-49
2022/12/30 10:27:53;;;;;;;1.00;1.00;;;;;;;8.36;97.72;98224.75;4179043;28;20203;-49
2022/12/30 10:29:55;;;;;;;1.10;1.10;;;;;;;8.37;98.21;98220.94;4181875;28;20231;-50
2022/12/30 10:32:19;;;;;;;2.53;0.90;;;;;;;8.40;98.25;98224.00;4166595;28;20650;-49
2022/12/30 10:34:24;;;;;;;1.65;0.90;;;;;;;8.43;98.66;98222.72;4180494;28;20874;-48
2022/12/30 10:36:39;;;;;;;2.13;1.90;;;;;;;8.32;98.74;98234.47;4159911;28;20232;-48
2022/12/30 10:38:41;;;;;;;0.70;0.70;;;;;;;8.41;98.69;98235.75;4188135;28;20265;-49
2022/12/30 10:40:52;;;;;;;0.82;0.82;;;;;;;8.32;98.84;98224.41;4171194;28;20204;-49
2022/12/30 10:42:55;;;;;;;1.88;1.67;;;;;;;8.26;99.28;98227.25;4172200;28;20776;-48
2022/12/30 10:45:06;;;;;;;1.33;0.88;;;;;;;8.32;99.55;98220.84;4189932;28;20721;-48